createdAt,value
2022-10-13T00:01:50.557Z,5.90
2022-10-13T00:04:23.394Z,5.90
2022-10-13T00:06:53.535Z,5.90
2022-10-13T00:09:23.711Z,5.90
2022-10-13T00:11:53.944Z,5.90
2022-10-13T00:14:24.152Z,5.90
2022-10-13T00:16:54.232Z,5.80
2022-10-13T00:19:27.943Z,5.80
2022-10-13T00:21:58.086Z,5.80
2022-10-13T00:24:28.404Z,5.70
2022-10-13T00:26:58.975Z,5.70
2022-10-13T00:29:29.316Z,5.60
2022-10-13T00:31:59.456Z,5.60
2022-10-13T00:34:32.318Z,5.60
2022-10-13T00:37:02.564Z,5.60
2022-10-13T00:39:32.727Z,5.60
2022-10-13T00:42:03.429Z,5.60
2022-10-13T00:45:11.858Z,5.60
2022-10-13T00:47:46.533Z,5.50
2022-10-13T00:50:23.846Z,5.50
2022-10-13T00:52:56.283Z,5.40
2022-10-13T00:55:30.867Z,5.50
2022-10-13T00:58:05.438Z,5.50
2022-10-13T01:00:36.994Z,5.50
2022-10-13T01:03:07.428Z,5.40
2022-10-13T01:05:42.208Z,5.40
2022-10-13T01:08:15.068Z,5.40
2022-10-13T01:10:59.296Z,5.40
2022-10-13T01:13:37.784Z,5.40
2022-10-13T01:16:16.758Z,5.40
2022-10-13T01:18:52.756Z,5.30
2022-10-13T01:21:31.792Z,5.30
2022-10-13T01:24:34.517Z,5.20
2022-10-13T01:27:42.231Z,5.20
2022-10-13T01:30:25.310Z,5.10
2022-10-13T01:33:10.452Z,5.10
2022-10-13T01:35:55.364Z,5.10
2022-10-13T01:38:38.393Z,5.10
2022-10-13T01:41:16.382Z,5.10
2022-10-13T01:43:52.117Z,5.10
2022-10-13T01:46:29.280Z,5.10
2022-10-13T01:49:03.171Z,5.10
2022-10-13T01:51:34.782Z,5.10
2022-10-13T01:54:05.033Z,5.10
2022-10-13T01:56:35.133Z,5.10
2022-10-13T01:59:09.591Z,5.10
2022-10-13T02:01:59.813Z,5.00
2022-10-13T02:04:45.874Z,5.00
2022-10-13T02:07:24.752Z,5.00
2022-10-13T02:10:05.764Z,5.00
2022-10-13T02:12:43.728Z,5.00
2022-10-13T02:15:19.491Z,5.00
2022-10-13T02:17:52.645Z,4.90
2022-10-13T02:20:24.164Z,4.90
2022-10-13T02:22:59.710Z,4.90
2022-10-13T02:25:31.217Z,4.90
2022-10-13T02:28:02.970Z,4.90
2022-10-13T02:30:35.455Z,4.90
2022-10-13T02:33:08.461Z,4.80
2022-10-13T02:35:39.084Z,4.90
2022-10-13T02:38:09.296Z,5.00
2022-10-13T02:40:39.581Z,5.00
2022-10-13T02:43:09.755Z,5.10
2022-10-13T02:45:40.075Z,5.10
2022-10-13T02:48:13.016Z,5.20
2022-10-13T02:50:43.223Z,5.20
2022-10-13T02:53:13.347Z,5.20
2022-10-13T02:55:43.480Z,5.20
2022-10-13T02:58:13.696Z,5.20
2022-10-13T03:00:44.013Z,5.20
2022-10-13T03:03:17.205Z,5.20
2022-10-13T03:05:47.873Z,5.20
2022-10-13T03:08:18.081Z,5.20
2022-10-13T03:10:48.275Z,5.20
2022-10-13T03:13:19.017Z,5.20
2022-10-13T03:15:50.043Z,5.20
2022-10-13T03:18:23.280Z,5.20
2022-10-13T03:21:00.822Z,5.30
2022-10-13T03:23:32.122Z,5.20
2022-10-13T03:26:04.642Z,5.20
2022-10-13T03:28:35.436Z,5.20
2022-10-13T03:31:08.010Z,5.20
2022-10-13T03:33:40.998Z,5.10
2022-10-13T03:36:11.676Z,5.10
2022-10-13T03:38:42.313Z,5.10
2022-10-13T03:41:15.076Z,5.10
2022-10-13T03:43:46.689Z,5.10
2022-10-13T03:46:19.648Z,5.00
2022-10-13T03:48:52.468Z,5.00
2022-10-13T03:51:26.625Z,5.00
2022-10-13T03:53:57.288Z,5.00
2022-10-13T03:56:30.014Z,5.00
2022-10-13T03:59:01.885Z,5.00
2022-10-13T04:01:33.887Z,5.00
2022-10-13T04:04:08.015Z,4.90
2022-10-13T04:06:38.120Z,5.00
2022-10-13T04:09:08.928Z,5.00
2022-10-13T04:11:39.085Z,5.00
2022-10-13T04:14:09.287Z,5.00
2022-10-13T04:16:40.586Z,5.00
2022-10-13T04:19:16.994Z,5.00
2022-10-13T04:21:47.816Z,4.90
2022-10-13T04:24:18.491Z,4.90
2022-10-13T04:26:49.463Z,4.90
2022-10-13T04:29:19.638Z,4.90
2022-10-13T04:31:50.420Z,4.90
2022-10-13T04:34:23.618Z,4.90
2022-10-13T04:36:54.120Z,5.00
2022-10-13T04:39:24.354Z,4.90
2022-10-13T04:41:54.578Z,4.90
2022-10-13T04:44:25.054Z,5.00
2022-10-13T04:46:55.562Z,5.00
2022-10-13T04:49:28.644Z,5.00
2022-10-13T04:51:58.846Z,5.00
2022-10-13T04:54:29.002Z,5.00
2022-10-13T04:56:59.458Z,5.00
2022-10-13T04:59:29.820Z,5.10
2022-10-13T05:02:00.066Z,5.10
2022-10-13T05:04:32.776Z,5.10
2022-10-13T05:07:17.421Z,5.20
2022-10-13T05:09:48.413Z,5.20
2022-10-13T05:12:19.300Z,5.20
2022-10-13T05:14:49.712Z,5.20
2022-10-13T05:17:19.985Z,5.20
2022-10-13T05:19:52.832Z,5.30
2022-10-13T05:22:23.204Z,5.30
2022-10-13T05:24:53.469Z,5.30
2022-10-13T05:27:23.840Z,5.40
2022-10-13T05:29:54.161Z,5.40
2022-10-13T05:32:24.341Z,5.40
2022-10-13T05:34:57.207Z,5.50
2022-10-13T05:37:27.448Z,5.50
2022-10-13T05:39:57.904Z,5.50
2022-10-13T05:42:28.120Z,5.60
2022-10-13T05:44:58.509Z,5.70
2022-10-13T05:47:29.730Z,5.70
2022-10-13T05:50:02.664Z,5.80
2022-10-13T05:52:35.425Z,5.90
2022-10-13T05:55:09.175Z,5.90
2022-10-13T05:57:44.160Z,6.00
2022-10-13T06:00:18.673Z,6.00
2022-10-13T06:02:54.174Z,6.10
2022-10-13T06:05:32.147Z,6.10
2022-10-13T06:08:03.425Z,6.10
2022-10-13T06:10:34.266Z,6.20
2022-10-13T06:13:04.715Z,6.30
2022-10-13T06:15:35.222Z,6.40
2022-10-13T06:18:05.613Z,6.40
2022-10-13T06:20:39.119Z,6.40
2022-10-13T06:23:10.004Z,6.50
2022-10-13T06:25:40.344Z,6.50
2022-10-13T06:28:10.537Z,6.60
2022-10-13T06:30:43.220Z,6.60
2022-10-13T06:33:13.475Z,6.70
2022-10-13T06:35:46.323Z,6.70
2022-10-13T06:38:16.884Z,6.70
2022-10-13T06:40:47.110Z,6.80
2022-10-13T06:43:17.333Z,6.80
2022-10-13T06:45:47.524Z,6.80
2022-10-13T06:48:17.759Z,6.90
2022-10-13T06:50:50.994Z,7.00
2022-10-13T06:53:21.602Z,7.10
2022-10-13T06:55:52.692Z,7.10
2022-10-13T06:58:23.063Z,7.20
2022-10-13T07:00:53.550Z,7.20
2022-10-13T07:03:25.300Z,7.30
2022-10-13T07:05:58.340Z,7.30
2022-10-13T07:08:29.234Z,7.40
2022-10-13T07:10:59.448Z,7.50
2022-10-13T07:13:32.413Z,7.50
2022-10-13T07:16:07.332Z,7.60
2022-10-13T07:18:38.595Z,7.60
2022-10-13T07:21:12.172Z,7.60
2022-10-13T07:23:42.389Z,7.60
2022-10-13T07:26:14.443Z,7.70
2022-10-13T07:28:45.341Z,7.70
2022-10-13T07:31:19.243Z,7.80
2022-10-13T07:33:52.089Z,7.90
2022-10-13T07:36:25.199Z,8.10
2022-10-13T07:38:55.571Z,8.30
2022-10-13T07:41:25.877Z,8.50
2022-10-13T07:43:58.266Z,8.60
2022-10-13T07:46:29.911Z,8.70
2022-10-13T07:49:00.496Z,8.70
2022-10-13T07:51:33.410Z,8.90
2022-10-13T07:54:03.678Z,9.10
2022-10-13T07:56:33.937Z,9.30
2022-10-13T07:59:06.833Z,9.40
2022-10-13T08:01:37.338Z,9.60
2022-10-13T08:04:08.040Z,9.60
2022-10-13T08:06:42.007Z,9.60
2022-10-13T08:09:13.237Z,9.80
2022-10-13T08:11:43.523Z,9.80
2022-10-13T08:14:15.875Z,10.00
2022-10-13T08:16:48.808Z,10.00
2022-10-13T08:19:23.103Z,10.00
2022-10-13T08:21:58.671Z,10.20
2022-10-13T08:24:31.162Z,10.20
2022-10-13T08:27:01.352Z,10.30
2022-10-13T08:29:31.903Z,10.30
2022-10-13T08:32:02.181Z,10.40
2022-10-13T08:34:34.190Z,10.50
2022-10-13T08:37:07.490Z,10.60
2022-10-13T08:39:37.858Z,10.70
2022-10-13T08:42:18.709Z,10.90
2022-10-13T08:47:48.102Z,11.30
2022-10-13T08:50:22.977Z,11.50
2022-10-13T08:53:00.068Z,11.70
2022-10-13T08:55:37.092Z,11.70
2022-10-13T08:58:18.064Z,11.70
2022-10-13T09:00:48.476Z,11.50
2022-10-13T09:03:28.398Z,11.50
2022-10-13T09:06:17.717Z,11.70
2022-10-13T09:08:56.828Z,11.80
2022-10-13T09:11:32.325Z,11.70
2022-10-13T09:14:04.592Z,11.90
2022-10-13T09:16:39.708Z,11.90
2022-10-13T09:19:27.596Z,12.00
2022-10-13T09:22:00.222Z,12.10
2022-10-13T09:24:33.188Z,12.10
2022-10-13T09:27:13.232Z,12.10
2022-10-13T09:29:44.052Z,12.10
2022-10-13T09:32:21.876Z,12.20
2022-10-13T09:34:55.694Z,12.20
2022-10-13T09:37:28.764Z,12.30
2022-10-13T09:40:22.197Z,12.40
2022-10-13T09:42:56.085Z,12.50
2022-10-13T09:45:30.728Z,12.50
2022-10-13T09:48:05.115Z,12.60
2022-10-13T09:50:38.743Z,12.70
2022-10-13T09:53:26.123Z,12.70
2022-10-13T09:56:21.928Z,12.60
2022-10-13T09:59:01.010Z,12.60
2022-10-13T10:01:38.266Z,12.60
2022-10-13T10:04:14.650Z,12.60
2022-10-13T10:06:45.832Z,12.60
2022-10-13T10:09:40.153Z,12.70
2022-10-13T10:12:19.693Z,12.70
2022-10-13T10:14:51.678Z,12.80
2022-10-13T10:17:31.506Z,12.90
2022-10-13T10:20:26.064Z,12.90
2022-10-13T10:23:03.847Z,13.00
2022-10-13T10:25:42.906Z,13.00
2022-10-13T10:28:43.456Z,13.00
2022-10-13T10:31:42.171Z,13.10
2022-10-13T10:34:39.718Z,13.10
2022-10-13T10:37:25.198Z,13.20
2022-10-13T10:40:08.304Z,13.20
2022-10-13T10:43:11.707Z,13.20
2022-10-13T10:45:45.814Z,13.30
2022-10-13T10:48:24.333Z,13.30
2022-10-13T10:50:55.739Z,13.30
2022-10-13T10:53:36.035Z,13.30
2022-10-13T10:56:18.635Z,13.40
2022-10-13T10:58:57.575Z,13.40
2022-10-13T11:01:40.610Z,13.40
2022-10-13T11:04:40.437Z,13.50
2022-10-13T11:07:52.249Z,13.50
2022-10-13T11:10:26.577Z,13.70
2022-10-13T11:13:22.410Z,13.80
2022-10-13T11:15:53.347Z,13.80
2022-10-13T11:19:15.483Z,13.80
2022-10-13T11:22:25.352Z,13.90
2022-10-13T11:25:39.749Z,13.90
2022-10-13T11:28:49.038Z,13.90
2022-10-13T11:31:38.599Z,13.90
2022-10-13T11:34:33.127Z,13.90
2022-10-13T11:37:16.595Z,13.90
2022-10-13T11:40:04.999Z,14.00
2022-10-13T11:43:21.207Z,14.00
2022-10-13T11:46:36.210Z,14.10
2022-10-13T11:49:45.406Z,14.20
2022-10-13T11:52:49.812Z,14.40
2022-10-13T11:55:26.797Z,14.60
2022-10-13T11:58:11.866Z,14.70
2022-10-13T12:00:53.019Z,14.70
2022-10-13T12:03:31.276Z,14.70
2022-10-13T12:06:08.288Z,14.70
2022-10-13T12:08:40.864Z,14.80
2022-10-13T12:11:26.305Z,14.90
2022-10-13T12:13:57.247Z,14.90
2022-10-13T12:16:28.222Z,14.90
2022-10-13T12:19:11.284Z,15.00
2022-10-13T12:21:56.881Z,15.00
2022-10-13T12:24:29.583Z,15.00
2022-10-13T12:27:01.304Z,15.00
2022-10-13T12:29:37.206Z,15.00
2022-10-13T12:32:22.787Z,15.20
2022-10-13T12:34:53.388Z,15.40
2022-10-13T12:37:33.385Z,15.40
2022-10-13T12:40:04.887Z,15.40
2022-10-13T12:42:38.476Z,15.40
2022-10-13T12:45:16.541Z,15.30
2022-10-13T12:47:55.476Z,15.40
2022-10-13T12:50:42.372Z,15.40
2022-10-13T12:53:22.267Z,15.40
2022-10-13T12:55:59.260Z,15.40
2022-10-13T12:58:33.479Z,15.50
2022-10-13T13:01:20.662Z,15.60
2022-10-13T13:03:59.416Z,15.60
2022-10-13T13:06:37.711Z,15.60
2022-10-13T13:09:27.143Z,15.60
2022-10-13T13:12:26.859Z,15.60
2022-10-13T13:14:58.819Z,15.60
2022-10-13T13:20:31.473Z,15.70
2022-10-13T13:23:03.094Z,15.70
2022-10-13T13:25:36.281Z,15.70
2022-10-13T13:28:09.545Z,15.70
2022-10-13T13:30:40.074Z,15.80
2022-10-13T13:33:12.732Z,15.70
2022-10-13T13:35:43.489Z,15.70
2022-10-13T13:38:14.002Z,15.70
2022-10-13T13:40:47.105Z,15.70
2022-10-13T13:43:17.631Z,15.70
2022-10-13T13:45:48.145Z,15.70
2022-10-13T13:48:18.676Z,15.70
2022-10-13T13:50:49.135Z,15.70
2022-10-13T13:53:19.679Z,15.70
2022-10-13T13:55:53.356Z,15.60
2022-10-13T13:58:23.739Z,15.70
2022-10-13T14:00:54.364Z,15.70
2022-10-13T14:03:24.813Z,15.70
2022-10-13T14:05:55.396Z,15.60
2022-10-13T14:08:26.032Z,15.60
2022-10-13T14:10:59.334Z,15.60
2022-10-13T14:13:30.031Z,15.60
2022-10-13T14:16:00.908Z,15.60
2022-10-13T14:18:32.650Z,15.60
2022-10-13T14:21:03.355Z,15.60
2022-10-13T14:23:33.816Z,15.70
2022-10-13T14:26:10.196Z,15.70
2022-10-13T14:28:43.878Z,15.80
2022-10-13T14:31:15.185Z,15.90
2022-10-13T14:33:45.816Z,16.10
2022-10-13T14:36:16.787Z,16.20
2022-10-13T14:38:47.279Z,16.10
2022-10-13T14:41:20.874Z,16.00
2022-10-13T14:43:51.590Z,16.00
2022-10-13T14:46:22.117Z,15.90
2022-10-13T14:48:52.979Z,15.80
2022-10-13T14:51:23.633Z,15.80
2022-10-13T14:53:54.436Z,15.80
2022-10-13T14:56:30.213Z,15.70
2022-10-13T14:59:02.898Z,15.70
2022-10-13T15:01:34.011Z,15.70
2022-10-13T15:04:05.015Z,15.60
2022-10-13T15:06:35.826Z,15.50
2022-10-13T15:09:06.311Z,15.50
2022-10-13T15:11:40.063Z,15.50
2022-10-13T15:14:10.553Z,15.50
2022-10-13T15:16:41.009Z,15.50
2022-10-13T15:19:11.597Z,15.50
2022-10-13T15:21:41.942Z,15.40
2022-10-13T15:24:13.851Z,15.40
2022-10-13T15:26:46.981Z,15.40
2022-10-13T15:29:17.263Z,15.30
2022-10-13T15:31:47.489Z,15.20
2022-10-13T15:34:17.925Z,15.20
2022-10-13T15:36:49.127Z,15.20
2022-10-13T15:39:19.737Z,15.10
2022-10-13T15:41:52.765Z,15.00
2022-10-13T15:44:23.446Z,14.90
2022-10-13T15:47:07.465Z,14.80
2022-10-13T15:49:40.244Z,14.70
2022-10-13T15:52:10.774Z,14.60
2022-10-13T15:54:41.111Z,14.50
2022-10-13T15:57:14.742Z,14.40
2022-10-13T15:59:45.192Z,14.30
2022-10-13T16:02:15.635Z,14.20
2022-10-13T16:04:45.980Z,14.20
2022-10-13T16:07:16.470Z,14.20
2022-10-13T16:09:46.882Z,14.10
2022-10-13T16:12:20.296Z,13.90
2022-10-13T16:14:51.001Z,13.80
2022-10-13T16:17:21.688Z,13.80
2022-10-13T16:19:51.937Z,13.80
2022-10-13T16:22:22.840Z,13.80
2022-10-13T16:24:53.582Z,13.80
2022-10-13T16:27:27.089Z,13.60
2022-10-13T16:29:57.404Z,13.60
2022-10-13T16:32:27.856Z,13.50
2022-10-13T16:34:58.321Z,13.40
2022-10-13T16:37:28.842Z,13.40
2022-10-13T16:39:59.267Z,13.30
2022-10-13T16:42:32.323Z,13.30
2022-10-13T16:45:02.910Z,13.20
2022-10-13T16:47:33.301Z,13.20
2022-10-13T16:50:06.570Z,13.10
2022-10-13T16:52:37.062Z,13.00
2022-10-13T16:55:09.834Z,12.90
2022-10-13T16:57:44.402Z,12.90
2022-10-13T17:00:16.216Z,12.80
2022-10-13T17:02:46.450Z,12.80
2022-10-13T17:05:17.001Z,12.60
2022-10-13T17:07:47.432Z,12.60
2022-10-13T17:10:18.124Z,12.60
2022-10-13T17:12:54.685Z,12.50
2022-10-13T17:15:25.084Z,12.50
2022-10-13T17:17:56.663Z,12.50
2022-10-13T17:20:27.166Z,12.50
2022-10-13T17:22:57.515Z,12.40
2022-10-13T17:25:27.993Z,12.30
2022-10-13T17:28:00.907Z,12.30
2022-10-13T17:30:31.423Z,12.20
2022-10-13T17:33:04.384Z,12.20
2022-10-13T17:35:34.992Z,12.20
2022-10-13T17:38:05.169Z,12.10
2022-10-13T17:40:37.879Z,12.10
2022-10-13T17:43:10.691Z,12.10
2022-10-13T17:45:41.058Z,12.00
2022-10-13T17:48:14.356Z,12.00
2022-10-13T17:50:44.840Z,12.00
2022-10-13T17:53:15.432Z,11.90
2022-10-13T17:55:45.662Z,11.90
2022-10-13T17:58:18.675Z,11.90
2022-10-13T18:01:12.024Z,11.80
2022-10-13T18:03:42.245Z,11.80
2022-10-13T18:06:12.797Z,11.70
2022-10-13T18:08:43.237Z,11.70
2022-10-13T18:11:16.852Z,11.60
2022-10-13T18:13:50.401Z,11.70
2022-10-13T18:16:23.146Z,11.60
2022-10-13T18:18:56.184Z,11.60
2022-10-13T18:21:29.522Z,11.50
2022-10-13T18:24:02.314Z,11.40
2022-10-13T18:26:35.120Z,11.40
2022-10-13T18:29:10.299Z,11.40
2022-10-13T18:31:42.693Z,11.30
2022-10-13T18:34:17.123Z,11.30
2022-10-13T18:36:50.784Z,11.30
2022-10-13T18:39:25.226Z,11.20
2022-10-13T18:41:57.091Z,11.10
2022-10-13T18:44:30.459Z,11.00
2022-10-13T18:47:00.743Z,11.00
2022-10-13T18:49:33.500Z,11.00
2022-10-13T18:52:04.797Z,10.80
2022-10-13T18:54:35.589Z,10.80
2022-10-13T18:57:05.816Z,10.70
2022-10-13T18:59:39.050Z,10.80
2022-10-13T19:02:09.350Z,10.70
2022-10-13T19:04:39.464Z,10.70
2022-10-13T19:07:09.639Z,10.70
2022-10-13T19:09:39.982Z,10.70
2022-10-13T19:12:10.740Z,10.60
2022-10-13T19:14:43.733Z,10.60
2022-10-13T19:17:13.884Z,10.60
2022-10-13T19:19:44.041Z,10.60
2022-10-13T19:22:14.242Z,10.50
2022-10-13T19:24:44.414Z,10.50
2022-10-13T19:27:14.645Z,10.50
2022-10-13T19:29:47.554Z,10.50
2022-10-13T19:32:18.848Z,10.50
2022-10-13T19:34:49.280Z,10.40
2022-10-13T19:37:20.029Z,10.20
2022-10-13T19:39:50.364Z,10.20
2022-10-13T19:42:21.021Z,10.20
2022-10-13T19:44:53.812Z,10.20
2022-10-13T19:47:23.949Z,10.20
2022-10-13T19:49:54.151Z,10.20
2022-10-13T19:52:25.006Z,10.10
2022-10-13T19:54:55.196Z,10.00
2022-10-13T19:57:25.300Z,10.00
2022-10-13T19:59:57.970Z,10.00
2022-10-13T20:02:28.251Z,10.00
2022-10-13T20:04:58.386Z,9.90
2022-10-13T20:07:28.536Z,9.90
2022-10-13T20:09:58.751Z,9.90
2022-10-13T20:12:28.971Z,9.80
2022-10-13T20:15:01.700Z,9.70
2022-10-13T20:17:33.549Z,9.80
2022-10-13T20:20:03.753Z,9.80
2022-10-13T20:22:34.017Z,9.70
2022-10-13T20:25:04.280Z,9.70
2022-10-13T20:27:34.644Z,9.70
2022-10-13T20:30:09.076Z,9.70
2022-10-13T20:32:39.581Z,9.60
2022-10-13T20:35:10.989Z,9.70
2022-10-13T20:37:41.232Z,9.70
2022-10-13T20:40:12.820Z,9.60
2022-10-13T20:42:42.972Z,9.70
2022-10-13T20:45:16.221Z,9.60
2022-10-13T20:47:47.204Z,9.60
2022-10-13T20:50:18.144Z,9.50
2022-10-13T20:52:48.269Z,9.50
2022-10-13T20:55:18.673Z,9.50
2022-10-13T20:57:53.453Z,9.40
2022-10-13T21:00:26.289Z,9.40
2022-10-13T21:03:01.175Z,9.40
2022-10-13T21:05:32.186Z,9.40
2022-10-13T21:08:02.329Z,9.30
2022-10-13T21:10:32.500Z,9.20
2022-10-13T21:13:02.668Z,9.10
2022-10-13T21:15:38.491Z,9.10
2022-10-13T21:18:09.738Z,9.10
2022-10-13T21:20:42.182Z,9.10
2022-10-13T21:23:15.512Z,9.00
2022-10-13T21:25:45.692Z,8.90
2022-10-13T21:28:15.906Z,8.90
2022-10-13T21:30:49.134Z,8.90
2022-10-13T21:33:19.350Z,8.90
2022-10-13T21:35:49.568Z,8.90
2022-10-13T21:38:19.605Z,8.90
2022-10-13T21:40:53.785Z,8.90
2022-10-13T21:43:24.219Z,8.80
2022-10-13T21:45:56.984Z,8.80
2022-10-13T21:48:27.192Z,8.80
2022-10-13T21:50:57.430Z,8.80
2022-10-13T21:53:27.773Z,8.80
2022-10-13T21:55:57.852Z,8.80
2022-10-13T21:58:28.068Z,8.70
2022-10-13T22:01:06.253Z,8.70
2022-10-13T22:03:37.153Z,8.70
2022-10-13T22:06:12.244Z,8.70
2022-10-13T22:08:46.843Z,8.70
2022-10-13T22:11:20.434Z,8.70
2022-10-13T22:13:50.790Z,8.60
2022-10-13T22:16:25.732Z,8.60
2022-10-13T22:18:58.198Z,8.50
2022-10-13T22:21:31.923Z,8.50
2022-10-13T22:24:04.275Z,8.50
2022-10-13T22:26:37.840Z,8.50
2022-10-13T22:29:09.724Z,8.40
2022-10-13T22:31:42.600Z,8.40
2022-10-13T22:34:13.941Z,8.30
2022-10-13T22:36:45.496Z,8.30
2022-10-13T22:39:16.377Z,8.30
2022-10-13T22:41:46.681Z,8.20
2022-10-13T22:44:16.986Z,8.20
2022-10-13T22:46:49.704Z,8.20
2022-10-13T22:49:19.796Z,8.20
2022-10-13T22:51:49.944Z,8.20
2022-10-13T22:54:20.028Z,8.10
2022-10-13T22:56:50.222Z,8.10
2022-10-13T22:59:20.443Z,8.10
2022-10-13T23:01:53.237Z,8.00
2022-10-13T23:04:23.454Z,8.00
2022-10-13T23:06:53.716Z,7.90
2022-10-13T23:09:23.838Z,7.90
2022-10-13T23:11:58.893Z,7.90
2022-10-13T23:14:30.046Z,7.90
2022-10-13T23:17:02.672Z,7.80
2022-10-13T23:19:33.176Z,7.80
2022-10-13T23:22:03.225Z,7.70
2022-10-13T23:24:33.672Z,7.70
2022-10-13T23:27:03.907Z,7.60
2022-10-13T23:29:34.109Z,7.60
2022-10-13T23:32:09.720Z,7.50
2022-10-13T23:34:40.225Z,7.50
2022-10-13T23:37:10.428Z,7.40
2022-10-13T23:39:40.998Z,7.40
2022-10-13T23:42:11.211Z,7.30
2022-10-13T23:44:41.406Z,7.30
2022-10-13T23:47:14.081Z,7.40
2022-10-13T23:49:44.441Z,7.40
2022-10-13T23:52:14.619Z,7.40
2022-10-13T23:54:44.845Z,7.50
2022-10-13T23:57:14.991Z,7.50
2022-10-13T23:59:45.227Z,7.50
